Latest Weather Observations for Hogan Island

IDT60801

Issued at 7:35 pm EST Friday 22 August 2014 (issued every 30 minutes, with the page automatically refreshed every 10 minutes)

About weather observations | Map of weather stations | Latest weather observations for TAS | Other Formats
Station Details ID: 200838 Name: HOGAN ISLAND Lat: -39.22 Lon: 146.98 Height: 116.0 m
Data from the previous 72 hours. | See also: Recent months at Hogan Island
Date/Time
EST
Temp
°C
App
Temp
°C
Dew
Point
Rel
Hum
%
Delta-T
°C
Wind Press
QNH
hPa
Press
MSL
hPa
Rain
since 9 am
mm
Dir
 
Spd
km/h
Gust
km/h
Spd
kts
Gust
kts
22/07:30pm 12.0 5.8 9.9 87 1.1 E 33 41 18 22 1030.1 - 0.0
22/07:00pm 11.9 5.3 10.0 88 1.0 E 35 43 19 23 1030.1 - 0.0
22/06:30pm 11.9 5.7 10.1 89 0.9 E 33 41 18 22 1029.9 - 0.0
22/06:00pm 11.8 6.2 10.0 89 0.9 E 30 37 16 20 1029.7 1029.8 0.0
22/05:30pm 11.9 6.6 10.0 88 1.0 E 28 35 15 19 1029.7 - 0.0
22/05:00pm 12.0 7.5 9.9 87 1.1 ENE 24 28 13 15 1029.6 - 0.0
22/04:30pm 12.6 8.1 10.1 85 1.3 ENE 24 26 13 14 1029.5 - 0.0
22/04:00pm 13.1 8.6 10.1 82 1.6 ENE 24 28 13 15 1029.4 - 0.0
22/03:30pm 13.5 9.0 10.1 80 1.8 ENE 24 28 13 15 1029.6 - 0.0
22/03:00pm 13.7 9.3 10.3 80 1.8 ENE 24 26 13 14 1029.7 1029.8 0.0
22/02:30pm 13.8 10.1 10.2 79 1.9 ENE 20 24 11 13 1030.0 - 0.0
22/02:00pm 14.5 11.2 10.9 79 1.9 ENE 19 22 10 12 1030.1 - 0.0
22/01:30pm 14.2 10.7 10.2 77 2.1 ENE 19 24 10 13 1030.4 - 0.0
22/01:00pm 14.8 11.4 10.6 76 2.2 NE 19 22 10 12 1030.6 - 0.0
22/12:30pm 14.8 10.4 10.4 75 2.3 NE 24 32 13 17 1030.9 - 0.0
22/12:00pm 14.5 9.3 10.1 75 2.3 NE 28 32 15 17 1031.2 1031.3 0.0
22/11:30am 14.5 9.4 10.5 77 2.1 NE 28 35 15 19 1031.5 - 0.0
22/11:00am 15.1 10.8 11.9 81 1.7 NE 26 32 14 17 1031.8 - 0.0
22/10:30am 14.4 9.2 11.6 83 1.5 NE 30 33 16 18 1031.8 - 0.0
22/10:00am 14.2 8.7 11.7 85 1.3 ENE 32 35 17 19 1031.8 - 0.0
22/09:30am 13.9 8.8 11.9 88 1.1 ENE 30 37 16 20 1031.9 - 0.0
22/09:00am 13.9 9.3 12.3 90 0.9 ENE 28 33 15 18 1032.1 1032.3 0.0
22/08:30am 13.1 7.9 11.7 91 0.7 ENE 30 33 16 18 1031.9 - 0.0
22/08:00am 12.6 7.4 11.5 93 0.6 ENE 30 33 16 18 1031.8 - 0.0
22/07:30am 11.9 6.5 11.0 94 0.5 ENE 30 32 16 17 1031.6 - 0.0
22/07:00am 11.4 5.9 10.5 94 0.5 ENE 30 33 16 18 1031.2 - 0.0
22/06:30am 11.3 5.8 10.4 94 0.5 ENE 30 33 16 18 1031.0 - 0.0
22/06:00am 11.4 5.5 10.5 94 0.5 ENE 32 35 17 19 1030.8 1030.9 0.0
22/05:30am 11.3 6.1 10.4 94 0.5 ENE 28 33 15 18 1030.8 - 0.0
22/05:00am 11.3 6.1 10.4 94 0.5 ENE 28 32 15 17 1030.7 - 0.0
22/04:30am 11.3 6.9 10.4 94 0.5 ENE 24 28 13 15 1030.5 - 0.0
22/04:00am 11.4 6.3 10.5 94 0.5 ENE 28 33 15 18 1030.3 - 0.0
22/03:30am 11.4 5.5 10.5 94 0.5 ENE 32 35 17 19 1030.2 - 0.0
22/03:00am 11.4 6.7 10.5 94 0.5 ENE 26 32 14 17 1030.4 1030.5 0.0
22/02:30am 11.6 6.1 10.5 93 0.6 ENE 30 33 16 18 1030.6 - 0.0
22/02:00am 11.6 5.5 10.5 93 0.6 ENE 33 37 18 20 1030.9 - 0.0
22/01:30am 11.5 5.4 10.4 93 0.6 ENE 33 39 18 21 1031.0 - 0.0
22/01:00am 11.7 5.2 10.4 92 0.7 ENE 35 41 19 22 1031.0 - 0.0
22/12:30am 11.5 5.0 10.2 92 0.7 ENE 35 41 19 22 1031.0 - 0.0
22/12:00am 11.8 5.3 10.4 91 0.7 ENE 35 41 19 22 1031.2 1031.3 0.0
 
Date/Time
EST
Temp
°C
App
Temp
°C
Dew
Point
Rel
Hum
%
Delta-T
°C
Wind Press
QNH
hPa
Press
MSL
hPa
Rain
since 9 am
mm
Dir
 
Spd
km/h
Gust
km/h
Spd
kts
Gust
kts
21/11:30pm 11.6 5.1 10.3 92 0.7 ENE 35 39 19 21 1031.3 - 0.0
21/11:00pm 11.5 5.3 10.1 91 0.7 ENE 33 39 18 21 1031.4 - 0.0
21/10:30pm 11.5 5.3 10.1 91 0.7 ENE 33 37 18 20 1031.4 - 0.0
21/10:00pm 11.6 5.0 10.0 90 0.8 ENE 35 41 19 22 1031.5 - 0.0
21/09:30pm 11.8 5.2 10.0 89 0.9 ENE 35 43 19 23 1031.4 - 0.0
21/09:00pm 11.4 4.7 9.8 90 0.8 ENE 35 43 19 23 1031.4 1031.5 0.0
21/08:30pm 11.5 4.5 9.8 89 0.9 ENE 37 43 20 23 1031.2 - 0.0
21/08:00pm 11.7 5.0 9.8 88 1.0 E 35 44 19 24 1031.0 - 0.0
21/07:30pm 11.6 5.4 9.9 89 0.9 E 33 41 18 22 1030.8 - 0.0
21/07:00pm 11.5 5.4 9.9 90 0.8 E 32 37 17 20 1030.6 - 0.0
21/06:30pm 11.4 5.3 9.7 89 0.9 E 32 35 17 19 1030.5 - 0.0
21/06:00pm 11.5 5.7 9.6 88 1.0 E 30 37 16 20 1030.3 1030.4 0.0
21/05:30pm 11.6 6.1 9.3 86 1.2 E 28 37 15 20 1030.1 - 0.0
21/05:00pm 12.0 6.6 9.4 84 1.3 E 28 35 15 19 1029.8 - 0.0
21/04:30pm 12.2 6.4 9.6 84 1.3 ENE 30 33 16 18 1029.6 - 0.0
21/04:00pm 12.5 6.1 9.5 82 1.5 E 33 39 18 21 1029.5 - 0.0
21/03:30pm 13.1 6.9 9.9 81 1.7 E 33 41 18 22 1029.4 - 0.0
21/03:00pm 13.2 6.5 9.8 80 1.7 E 35 41 19 22 1029.4 1029.5 0.0
21/02:30pm 13.3 7.5 9.5 78 1.9 ENE 30 37 16 20 1029.5 - 0.0
21/02:00pm 13.9 7.9 10.1 78 2.0 ENE 32 37 17 20 1029.6 - 0.0
21/01:30pm 14.1 8.6 10.5 79 1.9 ENE 30 35 16 19 1029.9 - 0.0
21/01:00pm 13.7 8.1 10.3 80 1.8 ENE 30 33 16 18 1030.1 - 0.0
21/12:30pm 13.8 8.3 10.4 80 1.8 ENE 30 33 16 18 1030.3 - 0.0
21/12:00pm 13.5 7.5 10.1 80 1.8 ENE 32 37 17 20 1030.5 1030.6 0.0
21/11:30am 13.3 6.9 9.5 78 1.9 E 33 41 18 22 1030.7 - 0.0
21/11:00am 13.4 6.7 9.8 79 1.9 E 35 41 19 22 1030.8 - 0.0
21/10:30am 13.2 6.5 9.8 80 1.8 E 35 41 19 22 1031.0 - 0.0
21/10:00am 13.1 6.8 9.7 80 1.7 E 33 39 18 21 1031.0 - 0.0
21/09:30am 12.0 5.6 9.2 83 1.4 E 33 37 18 20 1030.7 - 0.0
21/09:00am 12.1 5.7 9.3 83 1.4 E 33 39 18 21 1030.7 1030.8 0.0
21/08:30am 11.6 5.1 8.8 83 1.4 E 33 37 18 20 1030.8 - 0.0
21/08:00am 11.0 5.1 8.9 87 1.0 E 30 33 16 18 1030.7 - 0.0
21/07:30am 9.7 3.4 7.5 86 1.1 E 30 33 16 18 1030.3 - 0.0
21/07:00am 9.7 3.4 7.3 85 1.1 E 30 32 16 17 1030.0 - 0.0
21/06:30am 9.5 3.1 6.9 84 1.2 E 30 33 16 18 1030.0 - 0.0
21/06:00am 9.5 3.3 6.0 79 1.6 E 28 32 15 17 1029.7 1029.8 0.0
21/05:30am 9.0 3.4 5.6 79 1.6 E 24 28 13 15 1029.6 - 0.0
21/05:00am 9.1 3.2 6.0 81 1.4 E 26 30 14 16 1029.4 - 0.0
21/04:30am 9.0 3.0 5.2 77 1.7 E 26 32 14 17 1029.1 - 0.0
21/04:00am 9.0 3.0 5.4 78 1.6 E 26 30 14 16 1028.9 - 0.0
21/03:30am 8.8 3.5 5.2 78 1.6 E 22 24 12 13 1028.9 - 0.0
21/03:00am 8.3 3.4 5.2 81 1.4 E 20 22 11 12 1028.7 1028.9 0.0
21/02:30am 8.2 3.9 5.1 81 1.4 E 17 19 9 10 1029.0 - 0.0
21/02:00am 8.5 5.0 5.4 81 1.4 E 13 15 7 8 1029.0 - 0.0
21/01:30am 8.5 5.0 5.6 82 1.3 NE 13 19 7 10 1029.1 - 0.0
21/01:00am 8.7 4.1 5.6 81 1.4 NE 19 22 10 12 1029.0 - 0.0
21/12:30am 8.6 4.0 5.4 80 1.4 NE 19 22 10 12 1029.0 - 0.0
21/12:00am 9.3 5.1 5.5 77 1.7 NE 17 22 9 12 1028.9 1029.0 0.0
 
Date/Time
EST
Temp
°C
App
Temp
°C
Dew
Point
Rel
Hum
%
Delta-T
°C
Wind Press
QNH
hPa
Press
MSL
hPa
Rain
since 9 am
mm
Dir
 
Spd
km/h
Gust
km/h
Spd
kts
Gust
kts
20/11:30pm 9.8 5.6 5.8 76 1.8 NE 17 20 9 11 1029.0 - 0.0
20/11:00pm 9.9 5.7 5.5 74 2.0 E 17 19 9 10 1028.9 - 0.0
20/10:30pm 9.6 6.5 5.4 75 1.9 ENE 11 15 6 8 1028.9 - 0.0
20/10:00pm 9.7 7.0 5.5 75 1.9 NE 9 11 5 6 1029.1 - 0.0
20/09:30pm 9.8 8.4 5.4 74 2.0 ENE 2 7 1 4 1029.0 - 0.0
20/09:00pm 9.2 6.7 4.8 74 2.0 NE 7 9 4 5 1028.9 1029.0 0.0
20/08:30pm 9.5 8.4 5.1 74 2.0 CALM 0 6 0 3 1028.5 - 0.0
20/08:00pm 9.8 7.6 5.4 74 2.0 NNW 6 6 3 3 1028.4 - 0.0
20/07:30pm 9.8 8.4 5.4 74 2.0 NW 2 6 1 3 1028.1 - 0.0
20/07:00pm 9.2 6.7 4.8 74 2.0 WNW 7 11 4 6 1027.9 - 0.0
20/06:30pm 8.9 6.4 4.7 75 1.9 W 7 11 4 6 1027.6 - 0.0
20/06:00pm 8.9 5.2 4.5 74 1.9 W 13 17 7 9 1027.2 1027.4 0.0
20/05:30pm 9.6 6.0 5.0 73 2.1 W 13 17 7 9 1026.9 - 0.0
20/05:00pm 10.6 6.8 5.6 71 2.3 WSW 15 20 8 11 1026.6 - 0.0
20/04:30pm 11.3 6.7 5.6 68 2.7 W 19 24 10 13 1026.3 - 0.0
20/04:00pm 11.9 7.8 6.0 67 2.8 W 17 22 9 12 1026.1 - 0.0
20/03:30pm 12.2 7.4 5.8 65 3.0 W 20 26 11 14 1025.9 - 0.0
20/03:00pm 12.4 7.3 6.0 65 3.0 W 22 28 12 15 1025.8 1026.0 0.0
20/02:30pm 12.5 7.8 5.9 64 3.1 W 20 28 11 15 1025.6 - 0.0
20/02:00pm 13.1 8.2 6.9 66 3.0 W 22 26 12 14 1025.6 - 0.0
20/01:30pm 12.7 8.4 7.2 69 2.7 W 19 24 10 13 1025.6 - 0.0
20/01:00pm 11.1 6.3 5.8 70 2.5 W 20 24 11 13 1025.7 - 0.0
20/12:30pm 11.8 8.9 6.3 69 2.6 W 11 17 6 9 1025.9 - 0.0
20/12:00pm 12.0 8.7 6.5 69 2.6 W 13 15 7 8 1026.2 1026.4 0.0
20/11:30am 11.8 8.1 6.1 68 2.7 WSW 15 19 8 10 1026.4 - 0.0
20/11:00am 11.6 5.4 6.3 70 2.5 W 28 33 15 18 1026.3 - 0.0
20/10:30am 10.6 3.4 6.0 73 2.1 W 33 41 18 22 1026.2 - 0.0
20/10:00am 11.0 6.4 6.6 74 2.1 WSW 20 24 11 13 1026.2 - 0.0
20/09:30am 10.5 5.1 6.3 75 2.0 WSW 24 30 13 16 1026.1 - 0.0
20/09:00am 10.5 5.3 5.7 72 2.2 SW 22 28 12 15 1025.8 1026.0 0.0
20/08:30am 10.4 5.1 4.8 68 2.5 WSW 22 28 12 15 1025.7 - 0.0
20/08:00am 9.8 3.9 5.6 75 1.9 WSW 26 32 14 17 1025.4 - 0.0
20/07:30am 9.3 3.7 5.5 77 1.7 WSW 24 28 13 15 1025.2 - 0.0
20/07:00am 9.4 3.9 5.9 79 1.6 SW 24 30 13 16 1024.9 - 0.0
20/06:30am 9.3 3.0 5.5 77 1.7 WSW 28 32 15 17 1024.6 - 0.0
20/06:00am 9.4 3.6 6.1 80 1.5 WSW 26 32 14 17 1024.3 1024.4 0.0
20/05:30am 9.1 4.4 6.2 82 1.3 W 20 26 11 14 1024.2 - 0.0
20/05:00am 9.5 3.2 5.5 76 1.8 SW 28 35 15 19 1024.1 - 0.0
20/04:30am 9.6 2.9 5.6 76 1.8 SW 30 35 16 19 1024.0 - 0.0
20/04:00am 9.9 4.7 5.5 74 2.0 SW 22 32 12 17 1024.1 - 0.0
20/03:30am 9.4 3.0 5.0 74 2.0 SW 28 32 15 17 1024.1 - 0.0
20/03:00am 9.9 3.1 5.1 72 2.2 WSW 30 37 16 20 1024.0 1024.1 0.0
20/02:30am 9.8 3.3 4.6 70 2.3 WSW 28 37 15 20 1024.2 - 0.0
20/02:00am 10.4 4.4 5.2 70 2.4 WSW 26 37 14 20 1024.3 - 0.0
20/01:30am 10.6 3.6 4.3 65 2.8 WSW 30 35 16 19 1024.3 - 0.0
20/01:00am 10.6 4.9 4.7 67 2.7 W 24 32 13 17 1024.4 - 0.0
20/12:30am 10.4 3.7 3.9 64 2.9 WSW 28 39 15 21 1024.4 - 0.0
20/12:00am 10.6 4.5 4.7 67 2.7 WSW 26 37 14 20 1024.3 1024.4 0.0
 
Date/Time
EST
Temp
°C
App
Temp
°C
Dew
Point
Rel
Hum
%
Delta-T
°C
Wind Press
QNH
hPa
Press
MSL
hPa
Rain
since 9 am
mm
Dir
 
Spd
km/h
Gust
km/h
Spd
kts
Gust
kts
19/11:30pm 10.4 5.6 5.4 71 2.3 WSW 20 33 11 18 1024.4 - 0.0
19/11:00pm 10.2 5.4 5.8 74 2.0 W 20 26 11 14 1024.5 - 0.0
19/10:30pm 9.6 3.9 4.8 72 2.2 WSW 24 32 13 17 1024.7 - 0.0
19/10:00pm 9.8 2.9 4.8 71 2.3 WSW 30 35 16 19 1024.6 - 0.0
19/09:30pm 10.0 4.4 5.4 73 2.1 WSW 24 30 13 16 1024.7 - 0.0
19/09:00pm 9.5 4.2 5.1 74 2.0 WSW 22 28 12 15 1024.7 1024.8 0.0
19/08:30pm 9.4 3.7 5.0 74 2.0 WSW 24 32 13 17 1024.6 - 0.0
19/08:00pm 9.1 2.9 4.3 72 2.1 WSW 26 32 14 17 1024.5 - 0.0

Other Formats:

Comma delimited format used in spreadsheet applications
http://www.bom.gov.au/fwo/IDT60801/IDT60801.94949.axf

JavaScript Object Notation format (JSON) in row-major order
http://www.bom.gov.au/fwo/IDT60801/IDT60801.94949.json